Time;durP1;ratioP1;P1;durP2;ratioP2;P2;SDS_P1;SDS_P2;PMS_P1;PMS_P2;Temp;Humidity;BMP_temperature;BMP_pressure;BME280_temperature;BME280_humidity;BME280_pressure;Samples;Min_cycle;Max_cycle;Signal;HPM_P1;HPM_P2
2022/05/23 00:02:18;;;;;;;4.93;2.43;;;;;;;9.85;76.30;97368.09;6278593;28;20230;-48
2022/05/23 00:05:20;;;;;;;4.43;2.30;;;;;;;9.82;76.04;97370.97;6254939;28;20737;-42
2022/05/23 00:08:23;;;;;;;4.37;3.53;;;;;;;9.74;76.62;97368.13;6255527;28;20220;-42
2022/05/23 00:11:25;;;;;;;4.37;2.77;;;;;;;9.68;77.24;97379.19;6256068;28;20732;-42
2022/05/23 00:14:28;;;;;;;3.63;2.63;;;;;;;9.68;76.96;97374.75;6255019;28;20600;-43
2022/05/23 00:17:30;;;;;;;2.43;2.10;;;;;;;9.73;76.55;97382.25;6233846;28;20711;-43
2022/05/23 00:20:32;;;;;;;1.97;1.83;;;;;;;9.76;76.50;97382.03;6255159;28;20237;-42
2022/05/23 00:23:34;;;;;;;2.97;2.10;;;;;;;9.74;76.04;97370.75;6255293;28;20650;-43
2022/05/23 00:26:38;;;;;;;4.40;1.97;;;;;;;9.66;76.64;97367.91;6254848;28;20308;-42
2022/05/23 00:29:41;;;;;;;2.13;1.90;;;;;;;9.61;76.29;97374.38;6254368;28;20232;-43
2022/05/23 00:36:06;;;;;;;4.03;2.20;;;;;;;9.49;77.06;97380.63;6254140;28;20223;-43
2022/05/23 00:39:08;;;;;;;2.00;1.80;;;;;;;9.44;77.21;97389.88;6235065;28;20864;-43
2022/05/23 00:45:36;;;;;;;1.90;1.80;;;;;;;9.28;77.74;97387.66;6229920;28;20255;-43
2022/05/23 00:48:38;;;;;;;2.57;1.90;;;;;;;9.25;77.35;97385.25;6235561;28;20246;-43
2022/05/23 00:51:40;;;;;;;2.17;1.97;;;;;;;9.23;77.00;97390.63;6228316;28;20255;-43
2022/05/23 00:54:45;;;;;;;2.37;1.97;;;;;;;9.21;77.11;97387.28;6245568;28;20231;-43
2022/05/23 00:57:52;;;;;;;3.77;1.93;;;;;;;9.10;78.05;97387.28;6235872;28;20621;-42
2022/05/23 01:05:14;;;;;;;2.77;1.90;;;;;;;8.98;78.61;97388.28;6253393;28;20228;-42
2022/05/23 01:08:17;;;;;;;2.67;2.00;;;;;;;8.99;77.90;97391.72;6236244;28;20235;-43
2022/05/23 01:11:20;;;;;;;2.20;1.90;;;;;;;8.94;77.78;97389.47;6236244;28;20702;-43
2022/05/23 01:14:24;;;;;;;2.70;2.00;;;;;;;9.02;77.63;97392.34;6253771;28;20582;-43
2022/05/23 01:17:28;;;;;;;2.43;2.17;;;;;;;9.02;77.84;97389.69;6253941;28;20593;-42
2022/05/23 01:20:35;;;;;;;1.97;1.87;;;;;;;8.96;78.33;97381.47;6235831;28;20239;-42
2022/05/23 01:23:51;;;;;;;3.60;1.90;;;;;;;8.87;78.68;97375.13;6235772;28;20780;-43
2022/05/23 01:26:58;;;;;;;2.90;1.70;;;;;;;8.86;78.43;97376.09;6253934;28;20630;-45
2022/05/23 01:30:10;;;;;;;2.07;1.80;;;;;;;8.82;77.86;97364.09;6227717;28;20691;-44
2022/05/23 01:33:20;;;;;;;2.10;1.90;;;;;;;8.77;78.30;97371.53;6211633;28;22379;-42
2022/05/23 01:36:23;;;;;;;2.47;2.10;;;;;;;8.73;78.50;97378.00;6211229;28;20223;-44
2022/05/23 01:39:25;;;;;;;2.13;1.93;;;;;;;8.72;79.13;97368.41;6226519;28;20226;-42
2022/05/23 01:42:27;;;;;;;2.27;1.80;;;;;;;8.71;79.28;97362.31;6235521;28;20229;-42
2022/05/23 01:45:32;;;;;;;3.30;2.00;;;;;;;8.65;78.89;97352.28;6236417;28;20234;-43
2022/05/23 01:48:48;;;;;;;3.53;1.77;;;;;;;8.61;79.43;97363.97;6237210;28;20513;-43
2022/05/23 01:51:50;;;;;;;3.60;2.30;;;;;;;8.59;79.28;97351.91;6240700;28;20242;-44
2022/05/23 01:54:59;;;;;;;2.27;1.80;;;;;;;8.58;79.50;97351.09;6240780;28;20274;-43
2022/05/23 01:58:01;;;;;;;2.90;1.80;;;;;;;8.60;78.87;97346.53;6240239;28;20223;-42
2022/05/23 02:01:15;;;;;;;3.03;2.10;;;;;;;8.53;79.65;97340.06;6259725;28;20239;-47
2022/05/23 02:04:29;;;;;;;2.87;2.20;;;;;;;8.52;79.38;97335.78;6261082;28;20732;-45
2022/05/23 02:07:32;;;;;;;2.30;2.00;;;;;;;8.55;80.29;97334.69;6266218;28;20331;-42
2022/05/23 02:10:34;;;;;;;2.20;2.00;;;;;;;8.54;79.32;97327.75;6265516;28;20725;-45
2022/05/23 02:13:43;;;;;;;3.30;2.10;;;;;;;8.50;79.75;97316.63;6264468;28;20653;-42
2022/05/23 02:16:53;;;;;;;2.53;1.90;;;;;;;8.45;79.52;97324.06;6283237;28;20238;-42
2022/05/23 02:19:58;;;;;;;3.50;2.37;;;;;;;8.42;79.64;97319.03;6257494;28;20254;-42
2022/05/23 02:23:01;;;;;;;4.93;2.40;;;;;;;8.41;80.00;97326.06;6243969;28;20218;-44
2022/05/23 02:26:04;;;;;;;3.57;2.13;;;;;;;8.41;80.53;97326.06;6264700;28;20233;-43
2022/05/23 02:29:36;;;;;;;3.37;2.10;;;;;;;8.33;80.40;97323.22;6254759;28;20231;-43
2022/05/23 02:32:38;;;;;;;3.43;2.33;;;;;;;8.35;80.82;97326.56;6265281;28;20626;-42
2022/05/23 02:35:44;;;;;;;3.77;2.40;;;;;;;8.37;80.94;97326.44;6264151;28;20375;-44
2022/05/23 02:38:46;;;;;;;3.30;2.27;;;;;;;8.33;80.63;97325.00;6281944;28;20562;-43
2022/05/23 02:41:50;;;;;;;4.07;2.30;;;;;;;8.33;80.94;97325.84;6264076;28;20762;-43
2022/05/23 02:44:56;;;;;;;3.00;2.37;;;;;;;8.36;81.24;97322.13;6264428;28;20228;-44
2022/05/23 02:48:03;;;;;;;4.67;2.60;;;;;;;8.34;80.97;97310.91;6264064;28;20226;-42
2022/05/23 02:51:05;;;;;;;2.80;2.47;;;;;;;8.31;81.03;97300.56;6263602;28;20210;-43
2022/05/23 02:54:07;;;;;;;3.13;2.83;;;;;;;8.28;80.89;97304.31;6265857;28;20301;-43
2022/05/23 02:57:10;;;;;;;3.43;2.77;;;;;;;8.25;81.80;97306.31;6268732;28;20329;-44
2022/05/23 03:00:14;;;;;;;4.77;2.77;;;;;;;8.24;80.93;97305.47;6287408;28;20833;-43
2022/05/23 03:03:18;;;;;;;2.70;2.43;;;;;;;8.23;81.93;97318.75;6262052;28;20320;-42
2022/05/23 03:06:30;;;;;;;3.30;2.97;;;;;;;8.23;81.37;97314.31;6263721;28;20234;-43
2022/05/23 03:09:32;;;;;;;4.13;2.90;;;;;;;8.25;81.90;97306.31;6255397;28;20237;-44
2022/05/23 03:12:36;;;;;;;2.67;2.40;;;;;;;8.28;82.03;97306.09;6245414;28;20235;-42
2022/05/23 03:15:38;;;;;;;3.37;2.67;;;;;;;8.31;81.11;97306.72;6250949;28;20255;-44
2022/05/23 03:18:40;;;;;;;4.83;3.07;;;;;;;8.31;81.85;97295.31;6280239;28;20240;-43
2022/05/23 03:28:28;;;;;;;2.97;2.67;;;;;;;8.30;82.23;97306.78;6267673;28;20260;-43
2022/05/23 03:31:30;;;;;;;3.77;2.60;;;;;;;8.29;81.84;97299.84;6281149;28;20245;-44
2022/05/23 03:34:33;;;;;;;4.70;2.47;;;;;;;8.24;82.56;97294.13;6262689;28;20262;-42
2022/05/23 03:37:35;;;;;;;2.60;2.40;;;;;;;8.25;82.32;97301.91;6280798;28;20715;-44
2022/05/23 03:40:42;;;;;;;3.90;2.70;;;;;;;8.30;82.13;97305.00;6262378;28;20230;-43
2022/05/23 03:43:44;;;;;;;5.53;2.70;;;;;;;8.36;82.20;97298.47;6262332;28;20233;-42
2022/05/23 03:46:46;;;;;;;3.83;2.53;;;;;;;8.38;81.68;97296.56;6262374;28;20234;-42
2022/05/23 03:49:48;;;;;;;2.87;2.57;;;;;;;8.40;82.07;97294.63;6262441;28;20479;-43
2022/05/23 03:52:50;;;;;;;3.17;2.87;;;;;;;8.44;82.03;97290.81;6262443;28;20252;-44
2022/05/23 03:56:00;;;;;;;2.83;2.23;;;;;;;8.48;82.12;97300.16;6261726;28;20236;-43
2022/05/23 03:59:04;;;;;;;3.10;2.80;;;;;;;8.51;81.99;97305.16;6280371;28;20245;-45
2022/05/23 04:02:17;;;;;;;4.50;2.77;;;;;;;8.56;82.19;97308.28;6236523;28;20284;-44
2022/05/23 04:05:19;;;;;;;2.20;2.00;;;;;;;8.63;81.72;97313.88;6259894;28;20300;-45
2022/05/23 04:08:40;;;;;;;2.97;2.50;;;;;;;8.75;82.04;97323.47;6262035;28;20233;-45
2022/05/23 04:11:44;;;;;;;3.40;2.70;;;;;;;8.82;81.73;97316.75;6262119;28;20716;-46
2022/05/23 04:14:46;;;;;;;5.33;2.70;;;;;;;8.87;81.12;97318.06;6261426;28;20710;-43
2022/05/23 04:17:49;;;;;;;2.83;2.63;;;;;;;8.94;80.67;97312.31;6279071;28;20321;-43
2022/05/23 04:20:52;;;;;;;3.37;2.53;;;;;;;8.96;81.00;97310.41;6279745;28;20234;-42
2022/05/23 04:23:57;;;;;;;4.80;3.00;;;;;;;9.01;80.69;97310.84;6261040;28;20692;-42
2022/05/23 04:26:59;;;;;;;4.33;2.30;;;;;;;9.03;81.34;97324.75;6261462;28;20238;-43
2022/05/23 04:30:10;;;;;;;4.97;2.80;;;;;;;9.06;80.88;97321.88;6261643;28;20211;-43
2022/05/23 04:36:38;;;;;;;5.90;3.07;;;;;;;9.19;81.05;97323.38;6260332;28;20238;-43
2022/05/23 04:39:40;;;;;;;3.20;2.50;;;;;;;9.26;80.96;97323.75;6260777;28;20740;-42
2022/05/23 04:42:43;;;;;;;3.43;2.73;;;;;;;9.31;80.91;97324.19;6260616;28;20667;-42
2022/05/23 04:45:45;;;;;;;3.70;2.40;;;;;;;9.33;81.17;97310.91;6259956;28;20234;-42
2022/05/23 04:52:25;;;;;;;2.67;2.47;;;;;;;9.50;81.08;97308.56;6261849;28;20235;-42
2022/05/23 04:55:27;;;;;;;4.03;2.50;;;;;;;9.55;81.30;97310.84;6277627;28;20229;-42
2022/05/23 04:58:29;;;;;;;3.53;2.73;;;;;;;9.58;81.47;97300.88;6261547;28;20237;-42
2022/05/23 05:01:33;;;;;;;2.20;2.00;;;;;;;9.63;80.90;97296.06;6260118;28;20230;-43
2022/05/23 05:04:44;;;;;;;4.03;2.40;;;;;;;9.68;81.12;97287.78;6260493;28;20222;-43
2022/05/23 05:07:46;;;;;;;2.80;2.50;;;;;;;9.77;81.72;97288.81;6260488;28;20271;-43
2022/05/23 05:11:11;;;;;;;4.70;2.43;;;;;;;9.82;81.42;97300.63;6278276;28;20226;-44
2022/05/23 05:14:17;;;;;;;2.73;2.50;;;;;;;9.90;81.46;97297.34;6260186;28;20238;-44
2022/05/23 05:17:24;;;;;;;3.00;2.67;;;;;;;9.98;81.88;97292.31;6248886;28;20235;-42
2022/05/23 05:20:28;;;;;;;3.23;2.40;;;;;;;10.06;80.98;97286.38;6244389;28;20365;-44
2022/05/23 05:23:33;;;;;;;3.57;2.87;;;;;;;10.19;81.31;97289.66;6267859;28;20226;-42
2022/05/23 05:26:54;;;;;;;4.83;2.30;;;;;;;10.32;80.82;97290.28;6252464;28;20226;-42
2022/05/23 05:29:57;;;;;;;3.57;2.40;;;;;;;10.50;80.86;97295.78;6252027;28;20239;-43
2022/05/23 05:33:07;;;;;;;6.40;2.27;;;;;;;10.64;80.76;97284.88;6241834;28;20281;-42
2022/05/23 05:36:16;;;;;;;3.77;2.47;;;;;;;10.75;80.51;97291.88;6259354;28;20626;-43
2022/05/23 05:39:22;;;;;;;3.87;2.50;;;;;;;10.87;80.78;97285.53;6277635;28;20746;-45
2022/05/23 05:42:40;;;;;;;3.40;2.30;;;;;;;11.06;80.82;97275.84;6277876;28;20264;-44
2022/05/23 05:45:47;;;;;;;3.47;2.30;;;;;;;11.26;80.22;97271.44;6259810;28;20231;-42
2022/05/23 05:49:17;;;;;;;2.60;2.40;;;;;;;11.44;79.86;97268.94;6260317;28;20237;-42
2022/05/23 05:52:24;;;;;;;3.50;2.37;;;;;;;11.64;78.82;97273.25;6259752;28;20675;-42
2022/05/23 05:55:36;;;;;;;2.50;2.30;;;;;;;11.76;78.35;97271.34;6260046;28;20292;-42
2022/05/23 05:58:39;;;;;;;3.80;2.37;;;;;;;12.02;76.97;97285.63;6277753;28;20253;-43
2022/05/23 06:01:53;;;;;;;6.13;2.20;;;;;;;12.22;76.21;97281.13;6277336;28;20229;-43
2022/05/23 06:04:56;;;;;;;2.43;2.10;;;;;;;12.34;75.07;97273.88;6259219;28;20328;-44
2022/05/23 06:11:32;;;;;;;4.13;1.87;;;;;;;12.71;73.32;97281.78;6259660;28;20240;-43
2022/05/23 06:14:49;;;;;;;3.77;1.60;;;;;;;12.97;71.69;97282.81;6259297;28;20333;-43
2022/05/23 06:17:52;;;;;;;1.90;1.70;;;;;;;13.19;70.27;97282.41;6258807;28;20379;-42
2022/05/23 06:20:55;;;;;;;2.17;1.60;;;;;;;13.35;68.99;97271.16;6275781;28;20222;-43
2022/05/23 06:23:57;;;;;;;2.20;1.57;;;;;;;13.49;68.14;97267.97;6264457;28;20317;-46
2022/05/23 06:27:13;;;;;;;1.50;1.40;;;;;;;13.76;67.58;97266.22;6259704;28;20347;-43
2022/05/23 06:30:36;;;;;;;1.53;1.43;;;;;;;14.00;66.16;97266.41;6252001;28;20242;-44
2022/05/23 06:33:45;;;;;;;3.53;1.77;;;;;;;14.22;65.18;97267.72;6237488;28;20602;-44
2022/05/23 06:36:55;;;;;;;4.53;1.13;;;;;;;14.52;64.00;97259.31;6253036;28;20318;-43
2022/05/23 06:39:58;;;;;;;4.23;1.73;;;;;;;14.84;59.86;97260.47;6239004;28;20254;-43
2022/05/23 06:43:37;;;;;;;4.07;1.20;;;;;;;15.27;60.36;97241.63;6279443;28;20233;-44
2022/05/23 06:46:59;;;;;;;2.73;1.60;;;;;;;15.60;55.68;97226.59;6281188;28;20752;-45
2022/05/23 06:50:20;;;;;;;3.43;1.30;;;;;;;15.93;55.72;97223.94;6281889;28;20326;-43
2022/05/23 06:53:42;;;;;;;1.73;1.40;;;;;;;16.37;56.25;97230.50;6263095;28;20254;-46
2022/05/23 06:57:08;;;;;;;1.83;1.50;;;;;;;16.60;55.81;97228.78;6234346;28;20215;-44
2022/05/23 07:00:11;;;;;;;3.00;1.40;;;;;;;16.72;56.14;97234.59;6255226;28;20249;-44
2022/05/23 07:03:13;;;;;;;3.00;1.30;;;;;;;16.82;54.10;97240.56;6243588;28;20310;-47
2022/05/23 07:13:07;;;;;;;2.70;1.20;;;;;;;17.78;51.41;97226.84;6263144;28;20235;-43
2022/05/23 07:16:16;;;;;;;1.57;1.30;;;;;;;18.20;49.34;97231.63;6254151;28;20226;-43
2022/05/23 07:19:19;;;;;;;2.87;1.30;;;;;;;18.44;49.20;97235.91;6263869;28;20222;-43
2022/05/23 07:22:32;;;;;;;3.10;1.10;;;;;;;18.87;48.24;97222.72;6263149;28;20242;-44
2022/05/23 07:25:35;;;;;;;3.53;1.13;;;;;;;19.46;47.84;97218.09;6262862;28;20595;-44
2022/05/23 07:28:37;;;;;;;1.73;1.10;;;;;;;19.69;46.81;97205.38;6254819;28;20231;-44
2022/05/23 07:31:39;;;;;;;2.13;1.23;;;;;;;19.64;46.83;97213.16;6253842;28;20249;-43
2022/05/23 07:34:43;;;;;;;3.20;1.47;;;;;;;18.98;46.17;97214.25;6246993;28;20294;-45
2022/05/23 07:37:45;;;;;;;1.53;1.03;;;;;;;18.60;46.87;97214.38;6250291;28;20234;-45
2022/05/23 07:40:54;;;;;;;2.57;1.50;;;;;;;18.55;48.15;97219.44;6262916;28;20235;-45
2022/05/23 07:43:59;;;;;;;2.13;1.33;;;;;;;18.32;47.13;97208.81;6262403;28;20600;-44
2022/05/23 07:47:06;;;;;;;1.90;1.30;;;;;;;18.44;47.06;97211.88;6261386;28;20364;-45
2022/05/23 07:50:11;;;;;;;2.20;1.43;;;;;;;18.28;47.15;97202.16;6279250;28;20230;-45
2022/05/23 08:03:29;;;;;;;2.10;1.03;;;;;;;18.89;47.54;97197.47;6225598;28;20232;-45
2022/05/23 08:06:41;;;;;;;1.77;1.10;;;;;;;18.55;46.95;97200.72;6236387;28;20239;-44
2022/05/23 08:09:45;;;;;;;1.77;1.20;;;;;;;18.37;45.58;97201.06;6237892;28;20235;-44
2022/05/23 08:12:57;;;;;;;3.27;1.20;;;;;;;18.52;47.49;97203.75;6255401;28;20618;-45
2022/05/23 08:15:59;;;;;;;2.07;0.93;;;;;;;18.74;48.21;97204.69;6253862;28;20285;-47
2022/05/23 08:19:06;;;;;;;1.33;0.80;;;;;;;19.22;47.64;97202.38;6237736;28;20230;-43
2022/05/23 08:22:10;;;;;;;3.53;1.07;;;;;;;19.81;44.50;97203.00;6228160;28;20912;-44
2022/05/23 08:25:19;;;;;;;2.63;1.20;;;;;;;20.17;44.31;97194.84;6234740;28;20707;-42
2022/05/23 08:28:31;;;;;;;2.27;1.10;;;;;;;20.78;43.00;97211.13;6236915;28;20616;-45
2022/05/23 08:31:34;;;;;;;1.27;1.10;;;;;;;21.25;42.90;97208.50;6237545;28;20231;-47
2022/05/23 08:34:44;;;;;;;2.10;1.30;;;;;;;20.82;40.64;97207.03;6237143;28;20235;-44
2022/05/23 08:37:49;;;;;;;0.80;0.80;;;;;;;21.13;40.68;97196.66;6236435;28;20231;-44
2022/05/23 08:41:13;;;;;;;2.40;1.00;;;;;;;21.68;41.06;97203.59;6235799;28;20233;-46
2022/05/23 08:44:26;;;;;;;4.00;1.30;;;;;;;22.04;39.93;97205.13;6235650;28;20445;-46
2022/05/23 08:48:10;;;;;;;5.30;1.27;;;;;;;22.16;38.62;97199.97;6236680;28;20229;-45
2022/05/23 08:51:25;;;;;;;3.13;1.30;;;;;;;22.15;38.20;97201.81;6235346;28;20702;-46
2022/05/23 08:55:04;;;;;;;2.13;1.13;;;;;;;22.51;38.46;97197.84;6236043;28;20582;-45
2022/05/23 08:58:48;;;;;;;1.40;0.90;;;;;;;22.69;39.10;97200.69;6235938;28;20725;-43
2022/05/23 09:02:01;;;;;;;4.30;1.03;;;;;;;22.46;36.66;97185.81;6224696;28;20254;-45
2022/05/23 09:05:34;;;;;;;1.70;0.90;;;;;;;22.99;38.22;97180.31;6235637;28;20235;-46
2022/05/23 09:09:07;;;;;;;4.80;1.23;;;;;;;23.12;36.24;97172.19;6254155;28;20239;-45
2022/05/23 09:12:14;;;;;;;2.43;1.00;;;;;;;23.39;35.86;97163.97;6253431;28;20772;-46
2022/05/23 09:15:21;;;;;;;1.67;1.00;;;;;;;23.88;35.12;97168.63;6252823;28;20306;-44
2022/05/23 09:18:34;;;;;;;2.33;1.10;;;;;;;24.32;35.77;97161.44;6253758;28;20238;-49
2022/05/23 09:25:00;;;;;;;1.30;0.90;;;;;;;24.21;34.54;97149.47;6253939;28;20239;-50
2022/05/23 09:28:29;;;;;;;2.50;1.00;;;;;;;24.55;33.53;97140.84;6252142;28;20346;-46
2022/05/23 09:31:54;;;;;;;1.77;1.20;;;;;;;24.74;33.41;97140.84;6243729;28;20305;-43
2022/05/23 09:35:00;;;;;;;2.13;1.30;;;;;;;24.41;32.66;97127.72;6240015;28;20320;-45
2022/05/23 09:38:17;;;;;;;2.03;1.27;;;;;;;24.41;33.60;97133.94;6251734;28;20226;-48
2022/05/23 09:49:02;;;;;;;1.90;1.17;;;;;;;24.64;33.21;97123.31;6253493;28;20231;-46
2022/05/23 09:52:28;;;;;;;2.90;1.20;;;;;;;24.58;33.45;97117.97;6252602;28;20291;-45
2022/05/23 09:55:33;;;;;;;1.10;0.90;;;;;;;24.79;32.68;97106.72;6252253;28;20235;-41
2022/05/23 09:58:37;;;;;;;1.57;0.83;;;;;;;25.16;35.52;97120.16;6254139;28;20721;-41
2022/05/23 10:01:54;;;;;;;1.85;1.20;;;;;;;24.13;32.35;97102.03;6252923;28;20227;-41
2022/05/23 10:04:56;;;;;;;1.40;1.10;;;;;;;24.93;34.35;97094.72;6252884;28;20235;-42
2022/05/23 10:08:10;;;;;;;2.05;1.08;;;;;;;25.18;32.51;97099.16;6252541;28;20740;-43
2022/05/23 10:11:30;;;;;;;2.85;1.33;;;;;;;25.40;31.95;97103.00;6255157;28;20784;-43
2022/05/23 10:14:53;;;;;;;3.25;1.48;;;;;;;25.58;31.08;97094.81;6257621;28;20270;-42
2022/05/23 10:18:05;;;;;;;2.05;1.23;;;;;;;25.47;31.94;97083.97;6260526;28;20599;-42
2022/05/23 10:21:24;;;;;;;4.40;1.40;;;;;;;26.12;32.39;97081.25;6257084;28;20231;-42
2022/05/23 10:24:28;;;;;;;3.53;1.48;;;;;;;25.65;30.83;97086.63;6239514;28;20699;-42
2022/05/23 10:27:44;;;;;;;2.22;1.00;;;;;;;25.04;32.92;97081.50;6256611;28;20350;-43
2022/05/23 10:30:57;;;;;;;3.80;1.27;;;;;;;25.11;32.15;97072.25;6257837;28;20243;-43
2022/05/23 10:34:10;;;;;;;1.58;1.00;;;;;;;25.11;32.98;97076.84;6257548;28;20706;-44
2022/05/23 10:37:18;;;;;;;1.80;0.90;;;;;;;25.02;33.68;97081.72;6257234;28;20661;-42
2022/05/23 10:43:55;;;;;;;2.22;1.10;;;;;;;25.47;33.36;97075.84;6256407;28;20242;-43
2022/05/23 10:47:13;;;;;;;1.15;0.90;;;;;;;26.37;32.42;97084.53;6256942;28;20238;-45
2022/05/23 10:50:41;;;;;;;5.32;0.93;;;;;;;27.07;31.28;97071.63;6256388;28;20223;-44
2022/05/23 10:53:49;;;;;;;4.13;1.20;;;;;;;27.08;30.41;97076.00;6256960;28;20262;-43
2022/05/23 10:57:23;;;;;;;1.85;1.20;;;;;;;26.83;29.60;97086.31;6256014;28;20274;-43
2022/05/23 11:00:36;;;;;;;4.15;1.25;;;;;;;26.69;29.93;97068.69;6238027;28;20635;-45
2022/05/23 11:03:56;;;;;;;1.73;0.82;;;;;;;26.87;30.28;97063.09;6256511;28;20231;-43
2022/05/23 11:06:59;;;;;;;2.85;1.30;;;;;;;26.89;30.40;97058.25;6256339;28;20224;-44
2022/05/23 11:10:23;;;;;;;2.03;1.40;;;;;;;26.48;30.63;97062.03;6256924;28;20689;-43
2022/05/23 11:14:18;;;;;;;3.00;1.58;;;;;;;26.65;29.44;97054.81;6256173;28;20280;-43
2022/05/23 11:17:56;;;;;;;2.08;1.05;;;;;;;26.24;30.84;97046.91;6156114;28;20369;-44
2022/05/23 11:21:03;;;;;;;3.75;1.20;;;;;;;26.46;31.62;97051.44;6155768;28;20741;-45
2022/05/23 11:24:10;;;;;;;2.85;1.48;;;;;;;26.43;29.97;97045.72;6154992;28;20226;-46
2022/05/23 11:35:00;;;;;;;3.95;1.45;;;;;;;27.66;29.26;97023.34;6118389;28;20245;-46
2022/05/23 11:38:06;;;;;;;2.17;1.17;;;;;;;26.32;30.95;97012.19;6155799;28;20234;-42
2022/05/23 11:41:33;;;;;;;2.47;1.20;;;;;;;26.48;32.91;97023.31;6155919;28;20230;-46
2022/05/23 11:44:49;;;;;;;3.17;1.40;;;;;;;26.38;31.96;97021.22;6155131;28;20242;-44
2022/05/23 11:47:54;;;;;;;3.58;1.80;;;;;;;25.73;32.46;97021.41;6155637;28;20229;-45
2022/05/23 11:51:13;;;;;;;2.30;1.15;;;;;;;25.32;32.78;97011.47;6155311;28;20767;-43
2022/05/23 11:54:32;;;;;;;1.50;1.15;;;;;;;25.61;34.65;97004.38;6223102;28;20644;-42
2022/05/23 11:57:42;;;;;;;5.57;1.40;;;;;;;25.80;33.34;96997.78;6254525;28;20285;-43
2022/05/23 12:01:13;;;;;;;1.33;0.98;;;;;;;26.48;35.30;96993.56;6255164;28;20682;-45
2022/05/23 12:04:17;;;;;;;2.90;1.10;;;;;;;26.73;33.98;96988.66;6272459;28;20392;-44
2022/05/23 12:07:31;;;;;;;3.35;1.40;;;;;;;26.84;33.68;96990.47;6261432;28;20609;-44
2022/05/23 12:10:36;;;;;;;1.92;1.30;;;;;;;27.01;34.77;96990.53;6280409;28;20372;-46
2022/05/23 12:13:40;;;;;;;2.55;1.40;;;;;;;26.43;33.58;96983.47;6278899;28;20765;-42
2022/05/23 12:16:57;;;;;;;2.03;1.13;;;;;;;25.99;33.55;96984.94;6279690;28;20315;-44
2022/05/23 12:20:05;;;;;;;4.15;1.08;;;;;;;25.59;34.86;96992.94;6279365;28;20302;-44
2022/05/23 12:23:16;;;;;;;3.55;1.42;;;;;;;25.34;34.68;96976.94;6261625;28;20584;-41
2022/05/23 12:26:29;;;;;;;1.85;1.02;;;;;;;25.09;35.22;96973.63;6278602;28;20223;-45
2022/05/23 12:29:37;;;;;;;2.13;0.95;;;;;;;25.55;36.12;96978.25;6256210;28;20244;-45
2022/05/23 12:32:40;;;;;;;4.45;1.85;;;;;;;25.82;32.87;96971.34;6279301;28;20329;-44
2022/05/23 12:35:55;;;;;;;4.30;1.45;;;;;;;25.30;33.95;96959.56;6278382;28;20728;-44
2022/05/23 12:39:30;;;;;;;3.88;1.00;;;;;;;25.57;33.42;96954.50;6278870;28;20262;-43
2022/05/23 12:43:05;;;;;;;2.97;1.20;;;;;;;25.41;33.68;96956.03;6278517;28;20237;-45
2022/05/23 12:46:53;;;;;;;1.73;1.50;;;;;;;24.97;36.30;96942.00;6278627;28;20230;-47
2022/05/23 12:50:03;;;;;;;4.60;1.60;;;;;;;24.17;37.81;96944.13;6278379;28;20235;-46
2022/05/23 12:53:42;;;;;;;2.45;1.55;;;;;;;23.70;38.75;96945.72;6278489;28;20233;-44
2022/05/23 12:57:21;;;;;;;2.00;1.40;;;;;;;23.64;40.73;96937.72;6277891;28;20256;-44
2022/05/23 13:00:31;;;;;;;1.45;1.20;;;;;;;23.78;41.43;96915.78;6253864;28;20223;-44
2022/05/23 13:03:54;;;;;;;3.72;1.30;;;;;;;23.99;41.09;96905.59;6278059;28;20708;-43
2022/05/23 13:07:11;;;;;;;2.65;1.38;;;;;;;23.61;41.32;96871.63;6260651;28;20233;-43
2022/05/23 13:10:28;;;;;;;2.78;1.45;;;;;;;23.88;38.94;96839.78;6277984;28;20752;-43
2022/05/23 13:13:38;;;;;;;1.67;1.30;;;;;;;24.08;39.58;96856.53;6280095;28;20756;-44
2022/05/23 13:16:49;;;;;;;2.40;1.50;;;;;;;24.49;41.00;96871.94;6277572;28;20745;-44
2022/05/23 13:23:24;;;;;;;4.83;1.30;;;;;;;24.91;37.37;96886.22;6237634;28;20304;-47
2022/05/23 13:26:27;;;;;;;3.17;1.40;;;;;;;24.35;36.83;96880.47;6277150;28;20709;-46
2022/05/23 13:29:41;;;;;;;3.27;1.40;;;;;;;24.73;37.71;96882.78;6267864;28;20281;-47
2022/05/23 13:32:44;;;;;;;2.22;1.25;;;;;;;24.98;39.06;96886.13;6277120;28;20222;-45
2022/05/23 13:35:54;;;;;;;1.23;0.97;;;;;;;25.59;39.84;96871.31;6277973;28;20314;-50
2022/05/23 13:39:01;;;;;;;4.25;1.20;;;;;;;26.37;38.20;96876.16;6278269;28;20226;-47
2022/05/23 13:42:16;;;;;;;3.78;1.42;;;;;;;26.86;36.41;96871.88;6276650;28;20207;-48
2022/05/23 13:45:26;;;;;;;5.97;1.73;;;;;;;27.50;33.36;96880.47;6277561;28;20232;-45
2022/05/23 13:48:36;;;;;;;5.57;1.70;;;;;;;27.38;32.21;96868.91;6278167;28;20720;-48
2022/05/23 13:51:51;;;;;;;5.28;1.63;;;;;;;28.06;31.55;96863.03;6278256;28;20296;-46
2022/05/23 13:55:01;;;;;;;5.57;1.80;;;;;;;28.77;30.09;96861.09;6282026;28;20287;-45
2022/05/23 13:58:14;;;;;;;2.25;1.48;;;;;;;29.43;29.23;96858.09;6278103;28;20256;-47
2022/05/23 14:01:23;;;;;;;2.75;1.60;;;;;;;30.41;25.98;96861.78;6277034;28;20288;-48
2022/05/23 14:04:30;;;;;;;3.15;1.40;;;;;;;31.41;25.78;96864.84;6257578;28;20239;-45
2022/05/23 14:07:37;;;;;;;4.07;1.50;;;;;;;32.98;23.00;96853.97;6252659;28;20530;-44
2022/05/23 14:10:44;;;;;;;2.80;1.52;;;;;;;34.76;21.28;96849.19;6252919;28;20753;-44
2022/05/23 14:13:49;;;;;;;2.15;1.20;;;;;;;33.41;22.17;96848.69;6252588;28;20600;-47
2022/05/23 14:16:59;;;;;;;1.90;1.40;;;;;;;30.50;27.16;96840.25;6252090;28;20721;-45
2022/05/23 14:20:32;;;;;;;5.03;1.80;;;;;;;29.07;29.70;96833.34;6252630;28;20722;-48
2022/05/23 14:23:34;;;;;;;2.08;1.30;;;;;;;30.75;27.49;96827.50;6226121;28;20642;-44
2022/05/23 14:26:36;;;;;;;5.43;1.60;;;;;;;34.18;22.28;96827.53;6252254;28;20377;-47
2022/05/23 14:29:38;;;;;;;2.55;1.35;;;;;;;34.04;21.70;96830.16;6252667;28;20227;-46
2022/05/23 14:32:50;;;;;;;3.53;1.40;;;;;;;31.63;25.00;96834.53;6252295;28;20233;-48
2022/05/23 14:35:59;;;;;;;2.90;1.40;;;;;;;30.85;26.53;96829.41;6252239;28;20327;-43
2022/05/23 14:39:23;;;;;;;2.05;1.38;;;;;;;32.89;23.18;96824.81;6250659;28;20860;-45
2022/05/23 14:42:28;;;;;;;2.17;1.10;;;;;;;35.29;20.13;96822.28;6251966;28;20235;-48
2022/05/23 14:45:30;;;;;;;1.75;1.20;;;;;;;36.50;18.93;96821.72;6253068;28;20266;-48
2022/05/23 14:48:33;;;;;;;2.63;1.20;;;;;;;35.95;19.05;96820.16;6252105;28;20239;-46
2022/05/23 14:51:41;;;;;;;1.38;1.10;;;;;;;36.13;20.15;96809.06;6252388;28;20227;-48
2022/05/23 15:01:39;;;;;;;2.13;1.52;;;;;;;35.98;18.91;96789.34;6256984;28;20312;-45
2022/05/23 15:05:03;;;;;;;1.90;1.38;;;;;;;35.97;19.04;96780.28;6204574;28;20225;-42
2022/05/23 15:08:07;;;;;;;3.40;1.65;;;;;;;36.86;18.14;96796.13;6204501;28;20708;-45
2022/05/23 15:11:22;;;;;;;3.95;1.40;;;;;;;34.12;20.87;96787.63;6204249;28;20730;-49
2022/05/23 15:14:26;;;;;;;3.05;1.42;;;;;;;31.92;23.14;96794.56;6203689;28;20595;-48
2022/05/23 15:17:28;;;;;;;2.28;1.38;;;;;;;30.69;24.82;96786.91;6203585;28;20248;-46
2022/05/23 15:20:30;;;;;;;4.80;1.48;;;;;;;29.27;26.86;96773.69;6204117;28;20623;-47
2022/05/23 15:23:32;;;;;;;2.15;1.30;;;;;;;29.12;27.88;96780.94;6203380;28;20830;-49
2022/05/23 15:26:35;;;;;;;1.80;1.40;;;;;;;30.14;26.86;96779.50;6187884;28;20825;-47
2022/05/23 15:29:37;;;;;;;2.35;1.35;;;;;;;28.18;29.27;96770.69;6203745;28;20228;-45
2022/05/23 15:32:40;;;;;;;3.10;1.38;;;;;;;26.90;30.39;96774.72;6203298;28;20711;-47
2022/05/23 15:35:42;;;;;;;2.20;1.48;;;;;;;25.89;32.06;96758.41;6219358;28;20483;-49
2022/05/23 15:38:45;;;;;;;1.30;1.20;;;;;;;25.45;33.43;96757.28;6255460;28;20719;-46
2022/05/23 15:41:52;;;;;;;2.08;1.55;;;;;;;25.72;33.94;96762.97;6255723;28;20225;-45
2022/05/23 15:44:56;;;;;;;1.42;1.30;;;;;;;25.90;36.07;96770.88;6254759;28;20300;-46
2022/05/23 15:48:09;;;;;;;3.30;1.45;;;;;;;25.75;34.39;96765.19;6253466;28;20241;-48
2022/05/23 15:51:12;;;;;;;3.65;1.65;;;;;;;25.88;34.20;96762.19;6255857;28;20264;-46
2022/05/23 15:54:16;;;;;;;3.38;1.42;;;;;;;26.55;32.65;96756.88;6254506;28;20353;-46
2022/05/23 15:57:49;;;;;;;2.05;1.10;;;;;;;26.49;33.29;96746.22;6255674;28;20327;-47
2022/05/23 16:00:52;;;;;;;1.40;1.15;;;;;;;27.12;35.67;96737.69;6254070;28;20624;-47
2022/05/23 16:03:54;;;;;;;1.73;1.55;;;;;;;26.75;36.50;96721.97;6256095;28;20239;-45
2022/05/23 16:06:57;;;;;;;1.38;1.27;;;;;;;26.49;37.26;96717.25;6254745;28;20227;-48
2022/05/23 16:09:59;;;;;;;1.83;1.20;;;;;;;26.20;36.16;96732.72;6255084;28;20289;-46
2022/05/23 16:13:11;;;;;;;2.05;1.30;;;;;;;25.63;37.14;96724.69;6255681;28;20648;-46
2022/05/23 16:16:14;;;;;;;2.13;1.20;;;;;;;25.84;36.00;96717.78;6259854;28;20741;-46